sensor_id;sensor_type;location;lat;lon;timestamp;P1;durP1;ratioP1;P2;durP2;ratioP2
36585;SDS011;22591;48.314;11.562;2023-09-12T00:01:37;24.92;;;22.38;;
36585;SDS011;22591;48.314;11.562;2023-09-12T00:04:03;20.33;;;18.30;;
36585;SDS011;22591;48.314;11.562;2023-09-12T00:06:29;19.33;;;17.50;;
36585;SDS011;22591;48.314;11.562;2023-09-12T00:08:54;22.27;;;19.95;;
36585;SDS011;22591;48.314;11.562;2023-09-12T00:11:20;25.00;;;22.17;;
36585;SDS011;22591;48.314;11.562;2023-09-12T00:13:45;21.02;;;19.02;;
36585;SDS011;22591;48.314;11.562;2023-09-12T00:16:11;19.88;;;17.75;;
36585;SDS011;22591;48.314;11.562;2023-09-12T00:18:37;18.70;;;16.85;;
36585;SDS011;22591;48.314;11.562;2023-09-12T00:21:03;18.77;;;16.88;;
36585;SDS011;22591;48.314;11.562;2023-09-12T00:23:28;20.65;;;18.58;;
36585;SDS011;22591;48.314;11.562;2023-09-12T00:25:54;19.55;;;17.75;;
36585;SDS011;22591;48.314;11.562;2023-09-12T00:28:21;21.55;;;19.60;;
36585;SDS011;22591;48.314;11.562;2023-09-12T00:30:47;22.50;;;20.48;;
36585;SDS011;22591;48.314;11.562;2023-09-12T00:33:12;22.33;;;20.13;;
36585;SDS011;22591;48.314;11.562;2023-09-12T00:35:38;22.52;;;20.15;;
36585;SDS011;22591;48.314;11.562;2023-09-12T00:38:03;26.30;;;23.27;;
36585;SDS011;22591;48.314;11.562;2023-09-12T00:40:29;25.52;;;22.50;;
36585;SDS011;22591;48.314;11.562;2023-09-12T00:42:55;26.92;;;24.35;;
36585;SDS011;22591;48.314;11.562;2023-09-12T00:45:20;24.95;;;22.40;;
36585;SDS011;22591;48.314;11.562;2023-09-12T00:47:46;28.02;;;25.17;;
36585;SDS011;22591;48.314;11.562;2023-09-12T00:50:12;25.67;;;23.17;;
36585;SDS011;22591;48.314;11.562;2023-09-12T00:52:39;27.73;;;25.00;;
36585;SDS011;22591;48.314;11.562;2023-09-12T00:55:06;31.35;;;26.15;;
36585;SDS011;22591;48.314;11.562;2023-09-12T00:57:32;31.17;;;28.08;;
36585;SDS011;22591;48.314;11.562;2023-09-12T00:59:59;26.50;;;23.85;;
36585;SDS011;22591;48.314;11.562;2023-09-12T01:02:36;30.35;;;26.90;;
36585;SDS011;22591;48.314;11.562;2023-09-12T01:05:09;29.35;;;26.55;;
36585;SDS011;22591;48.314;11.562;2023-09-12T01:07:36;30.55;;;27.50;;
36585;SDS011;22591;48.314;11.562;2023-09-12T01:10:02;31.92;;;28.70;;
36585;SDS011;22591;48.314;11.562;2023-09-12T01:12:31;34.38;;;30.42;;
36585;SDS011;22591;48.314;11.562;2023-09-12T01:14:57;35.90;;;30.17;;
36585;SDS011;22591;48.314;11.562;2023-09-12T01:17:22;31.70;;;28.48;;
36585;SDS011;22591;48.314;11.562;2023-09-12T01:19:49;32.13;;;28.67;;
36585;SDS011;22591;48.314;11.562;2023-09-12T01:22:26;31.77;;;28.70;;
36585;SDS011;22591;48.314;11.562;2023-09-12T01:27:27;30.17;;;27.17;;
36585;SDS011;22591;48.314;11.562;2023-09-12T01:29:58;27.60;;;24.85;;
36585;SDS011;22591;48.314;11.562;2023-09-12T01:32:28;26.75;;;24.15;;
36585;SDS011;22591;48.314;11.562;2023-09-12T01:34:55;31.08;;;27.02;;
36585;SDS011;22591;48.314;11.562;2023-09-12T01:37:21;27.88;;;25.17;;
36585;SDS011;22591;48.314;11.562;2023-09-12T01:39:46;29.20;;;26.30;;
36585;SDS011;22591;48.314;11.562;2023-09-12T01:42:14;30.05;;;27.08;;
36585;SDS011;22591;48.314;11.562;2023-09-12T01:44:43;30.63;;;27.55;;
36585;SDS011;22591;48.314;11.562;2023-09-12T01:47:09;30.23;;;27.40;;
36585;SDS011;22591;48.314;11.562;2023-09-12T01:49:36;28.17;;;25.75;;
36585;SDS011;22591;48.314;11.562;2023-09-12T01:52:05;25.88;;;23.25;;
36585;SDS011;22591;48.314;11.562;2023-09-12T01:54:31;31.27;;;28.13;;
36585;SDS011;22591;48.314;11.562;2023-09-12T01:56:57;34.33;;;30.73;;
36585;SDS011;22591;48.314;11.562;2023-09-12T01:59:24;34.63;;;31.25;;
36585;SDS011;22591;48.314;11.562;2023-09-12T02:01:50;34.88;;;31.10;;
36585;SDS011;22591;48.314;11.562;2023-09-12T02:04:16;34.72;;;31.33;;
36585;SDS011;22591;48.314;11.562;2023-09-12T02:06:41;29.92;;;26.88;;
36585;SDS011;22591;48.314;11.562;2023-09-12T02:09:07;35.17;;;31.67;;
36585;SDS011;22591;48.314;11.562;2023-09-12T02:11:32;33.22;;;29.95;;
36585;SDS011;22591;48.314;11.562;2023-09-12T02:13:58;30.90;;;27.52;;
36585;SDS011;22591;48.314;11.562;2023-09-12T02:16:23;28.83;;;25.70;;
36585;SDS011;22591;48.314;11.562;2023-09-12T02:18:49;36.10;;;32.55;;
36585;SDS011;22591;48.314;11.562;2023-09-12T02:21:14;33.72;;;30.30;;
36585;SDS011;22591;48.314;11.562;2023-09-12T02:23:41;40.33;;;35.28;;
36585;SDS011;22591;48.314;11.562;2023-09-12T02:26:07;33.58;;;30.02;;
36585;SDS011;22591;48.314;11.562;2023-09-12T02:28:32;31.33;;;28.08;;
36585;SDS011;22591;48.314;11.562;2023-09-12T02:30:58;33.25;;;30.17;;
36585;SDS011;22591;48.314;11.562;2023-09-12T02:33:24;32.22;;;29.05;;
36585;SDS011;22591;48.314;11.562;2023-09-12T02:35:49;31.83;;;28.60;;
36585;SDS011;22591;48.314;11.562;2023-09-12T02:38:15;29.60;;;26.48;;
36585;SDS011;22591;48.314;11.562;2023-09-12T02:40:41;26.08;;;21.90;;
36585;SDS011;22591;48.314;11.562;2023-09-12T02:43:06;23.25;;;20.83;;
36585;SDS011;22591;48.314;11.562;2023-09-12T02:45:32;21.67;;;19.45;;
36585;SDS011;22591;48.314;11.562;2023-09-12T02:47:58;24.08;;;21.75;;
36585;SDS011;22591;48.314;11.562;2023-09-12T02:50:23;32.35;;;27.25;;
36585;SDS011;22591;48.314;11.562;2023-09-12T02:52:49;29.20;;;26.27;;
36585;SDS011;22591;48.314;11.562;2023-09-12T02:55:14;26.90;;;24.23;;
36585;SDS011;22591;48.314;11.562;2023-09-12T02:57:40;24.67;;;21.70;;
36585;SDS011;22591;48.314;11.562;2023-09-12T03:00:05;22.90;;;20.10;;
36585;SDS011;22591;48.314;11.562;2023-09-12T03:02:33;19.52;;;17.63;;
36585;SDS011;22591;48.314;11.562;2023-09-12T03:04:59;18.42;;;16.83;;
36585;SDS011;22591;48.314;11.562;2023-09-12T03:07:24;18.70;;;16.98;;
36585;SDS011;22591;48.314;11.562;2023-09-12T03:09:50;20.55;;;18.42;;
36585;SDS011;22591;48.314;11.562;2023-09-12T03:12:15;18.38;;;16.73;;
36585;SDS011;22591;48.314;11.562;2023-09-12T03:14:41;19.83;;;17.83;;
36585;SDS011;22591;48.314;11.562;2023-09-12T03:17:06;20.67;;;18.67;;
36585;SDS011;22591;48.314;11.562;2023-09-12T03:19:32;20.83;;;18.92;;
36585;SDS011;22591;48.314;11.562;2023-09-12T03:21:57;22.13;;;19.83;;
36585;SDS011;22591;48.314;11.562;2023-09-12T03:24:23;20.65;;;18.73;;
36585;SDS011;22591;48.314;11.562;2023-09-12T03:26:50;19.67;;;18.08;;
36585;SDS011;22591;48.314;11.562;2023-09-12T03:29:16;21.45;;;19.33;;
36585;SDS011;22591;48.314;11.562;2023-09-12T03:31:41;21.25;;;19.25;;
36585;SDS011;22591;48.314;11.562;2023-09-12T03:34:07;20.90;;;18.77;;
36585;SDS011;22591;48.314;11.562;2023-09-12T03:36:33;22.58;;;20.23;;
36585;SDS011;22591;48.314;11.562;2023-09-12T03:38:58;19.30;;;17.50;;
36585;SDS011;22591;48.314;11.562;2023-09-12T03:41:24;20.08;;;18.10;;
36585;SDS011;22591;48.314;11.562;2023-09-12T03:43:53;19.77;;;17.98;;
36585;SDS011;22591;48.314;11.562;2023-09-12T03:46:20;20.23;;;18.25;;
36585;SDS011;22591;48.314;11.562;2023-09-12T03:48:46;22.67;;;18.63;;
36585;SDS011;22591;48.314;11.562;2023-09-12T03:51:12;20.77;;;18.58;;
36585;SDS011;22591;48.314;11.562;2023-09-12T03:53:37;20.60;;;18.58;;
36585;SDS011;22591;48.314;11.562;2023-09-12T03:56:03;21.42;;;18.70;;
36585;SDS011;22591;48.314;11.562;2023-09-12T03:58:29;20.48;;;18.27;;
36585;SDS011;22591;48.314;11.562;2023-09-12T04:00:54;20.13;;;18.33;;
36585;SDS011;22591;48.314;11.562;2023-09-12T04:03:20;22.58;;;20.42;;
36585;SDS011;22591;48.314;11.562;2023-09-12T04:05:51;21.23;;;19.25;;
36585;SDS011;22591;48.314;11.562;2023-09-12T04:08:17;22.42;;;20.23;;
36585;SDS011;22591;48.314;11.562;2023-09-12T04:10:43;21.45;;;19.25;;
36585;SDS011;22591;48.314;11.562;2023-09-12T04:13:08;21.60;;;19.38;;
36585;SDS011;22591;48.314;11.562;2023-09-12T04:15:35;21.67;;;19.20;;
36585;SDS011;22591;48.314;11.562;2023-09-12T04:18:01;22.30;;;20.30;;
36585;SDS011;22591;48.314;11.562;2023-09-12T04:20:26;20.20;;;18.23;;
36585;SDS011;22591;48.314;11.562;2023-09-12T04:22:52;21.88;;;18.63;;
36585;SDS011;22591;48.314;11.562;2023-09-12T04:25:17;18.95;;;17.15;;
36585;SDS011;22591;48.314;11.562;2023-09-12T04:27:44;18.35;;;16.80;;
36585;SDS011;22591;48.314;11.562;2023-09-12T04:30:10;19.90;;;18.10;;
36585;SDS011;22591;48.314;11.562;2023-09-12T04:32:36;19.98;;;17.98;;
36585;SDS011;22591;48.314;11.562;2023-09-12T04:35:02;19.77;;;17.88;;
36585;SDS011;22591;48.314;11.562;2023-09-12T04:37:28;22.00;;;19.05;;
36585;SDS011;22591;48.314;11.562;2023-09-12T04:39:54;19.30;;;17.60;;
36585;SDS011;22591;48.314;11.562;2023-09-12T04:42:20;18.23;;;16.60;;
36585;SDS011;22591;48.314;11.562;2023-09-12T04:44:46;20.40;;;18.23;;
36585;SDS011;22591;48.314;11.562;2023-09-12T04:47:13;18.15;;;16.23;;
36585;SDS011;22591;48.314;11.562;2023-09-12T04:49:43;16.30;;;14.80;;
36585;SDS011;22591;48.314;11.562;2023-09-12T04:52:09;17.58;;;16.02;;
36585;SDS011;22591;48.314;11.562;2023-09-12T04:54:36;17.25;;;15.55;;
36585;SDS011;22591;48.314;11.562;2023-09-12T04:57:01;19.73;;;17.83;;
36585;SDS011;22591;48.314;11.562;2023-09-12T04:59:27;18.55;;;16.88;;
36585;SDS011;22591;48.314;11.562;2023-09-12T05:01:53;17.25;;;15.85;;
36585;SDS011;22591;48.314;11.562;2023-09-12T05:04:20;17.15;;;15.55;;
36585;SDS011;22591;48.314;11.562;2023-09-12T05:06:45;18.35;;;16.38;;
36585;SDS011;22591;48.314;11.562;2023-09-12T05:09:11;16.88;;;15.32;;
36585;SDS011;22591;48.314;11.562;2023-09-12T05:11:38;21.10;;;18.92;;
36585;SDS011;22591;48.314;11.562;2023-09-12T05:14:04;20.90;;;18.67;;
36585;SDS011;22591;48.314;11.562;2023-09-12T05:16:29;18.52;;;16.83;;
36585;SDS011;22591;48.314;11.562;2023-09-12T05:18:55;17.08;;;15.57;;
36585;SDS011;22591;48.314;11.562;2023-09-12T05:21:21;18.98;;;17.20;;
36585;SDS011;22591;48.314;11.562;2023-09-12T05:23:46;16.48;;;15.02;;
36585;SDS011;22591;48.314;11.562;2023-09-12T05:26:12;16.30;;;14.90;;
36585;SDS011;22591;48.314;11.562;2023-09-12T05:28:37;16.25;;;14.75;;
36585;SDS011;22591;48.314;11.562;2023-09-12T05:31:03;17.00;;;15.52;;
36585;SDS011;22591;48.314;11.562;2023-09-12T05:33:28;15.70;;;14.40;;
36585;SDS011;22591;48.314;11.562;2023-09-12T05:35:54;17.27;;;15.40;;
36585;SDS011;22591;48.314;11.562;2023-09-12T05:38:19;17.55;;;16.00;;
36585;SDS011;22591;48.314;11.562;2023-09-12T05:40:45;18.85;;;16.85;;
36585;SDS011;22591;48.314;11.562;2023-09-12T05:43:11;17.92;;;16.23;;
36585;SDS011;22591;48.314;11.562;2023-09-12T05:45:38;16.45;;;14.98;;
36585;SDS011;22591;48.314;11.562;2023-09-12T05:48:03;16.17;;;14.75;;
36585;SDS011;22591;48.314;11.562;2023-09-12T05:50:29;21.58;;;17.95;;
36585;SDS011;22591;48.314;11.562;2023-09-12T05:52:55;19.02;;;17.42;;
36585;SDS011;22591;48.314;11.562;2023-09-12T05:55:20;17.90;;;16.15;;
36585;SDS011;22591;48.314;11.562;2023-09-12T05:57:48;18.08;;;16.65;;
36585;SDS011;22591;48.314;11.562;2023-09-12T06:00:17;17.80;;;15.85;;
36585;SDS011;22591;48.314;11.562;2023-09-12T06:02:44;18.00;;;16.13;;
36585;SDS011;22591;48.314;11.562;2023-09-12T06:05:10;17.40;;;15.95;;
36585;SDS011;22591;48.314;11.562;2023-09-12T06:07:37;17.80;;;16.23;;
36585;SDS011;22591;48.314;11.562;2023-09-12T06:10:05;18.70;;;16.83;;
36585;SDS011;22591;48.314;11.562;2023-09-12T06:12:31;18.92;;;17.10;;
36585;SDS011;22591;48.314;11.562;2023-09-12T06:14:57;16.92;;;15.52;;
36585;SDS011;22591;48.314;11.562;2023-09-12T06:17:27;17.00;;;15.60;;
36585;SDS011;22591;48.314;11.562;2023-09-12T06:19:54;16.42;;;14.88;;
36585;SDS011;22591;48.314;11.562;2023-09-12T06:22:20;16.15;;;14.40;;
36585;SDS011;22591;48.314;11.562;2023-09-12T06:24:50;15.30;;;13.75;;
36585;SDS011;22591;48.314;11.562;2023-09-12T06:27:15;15.98;;;14.43;;
36585;SDS011;22591;48.314;11.562;2023-09-12T06:29:47;15.77;;;14.32;;
36585;SDS011;22591;48.314;11.562;2023-09-12T06:32:14;16.23;;;14.63;;
36585;SDS011;22591;48.314;11.562;2023-09-12T06:34:40;14.38;;;13.18;;
36585;SDS011;22591;48.314;11.562;2023-09-12T06:37:06;15.25;;;13.75;;
36585;SDS011;22591;48.314;11.562;2023-09-12T06:39:33;15.48;;;13.85;;
36585;SDS011;22591;48.314;11.562;2023-09-12T06:41:58;14.60;;;13.15;;
36585;SDS011;22591;48.314;11.562;2023-09-12T06:44:24;15.63;;;13.95;;
36585;SDS011;22591;48.314;11.562;2023-09-12T06:46:50;15.30;;;13.82;;
36585;SDS011;22591;48.314;11.562;2023-09-12T06:49:15;14.90;;;13.45;;
36585;SDS011;22591;48.314;11.562;2023-09-12T06:51:42;14.30;;;13.10;;
36585;SDS011;22591;48.314;11.562;2023-09-12T06:54:07;14.15;;;12.82;;
36585;SDS011;22591;48.314;11.562;2023-09-12T06:56:33;14.93;;;13.70;;
36585;SDS011;22591;48.314;11.562;2023-09-12T06:59:03;13.90;;;12.52;;
36585;SDS011;22591;48.314;11.562;2023-09-12T07:01:30;13.23;;;12.15;;
36585;SDS011;22591;48.314;11.562;2023-09-12T07:03:56;13.20;;;12.00;;
36585;SDS011;22591;48.314;11.562;2023-09-12T07:06:22;14.25;;;13.13;;
36585;SDS011;22591;48.314;11.562;2023-09-12T07:08:49;14.05;;;12.85;;
36585;SDS011;22591;48.314;11.562;2023-09-12T07:11:16;14.80;;;13.50;;
36585;SDS011;22591;48.314;11.562;2023-09-12T07:13:43;13.95;;;11.55;;
36585;SDS011;22591;48.314;11.562;2023-09-12T07:16:08;13.45;;;12.25;;
36585;SDS011;22591;48.314;11.562;2023-09-12T07:18:34;12.55;;;11.43;;
36585;SDS011;22591;48.314;11.562;2023-09-12T07:21:01;16.35;;;12.80;;
36585;SDS011;22591;48.314;11.562;2023-09-12T07:23:28;12.68;;;11.60;;
36585;SDS011;22591;48.314;11.562;2023-09-12T07:25:54;13.90;;;12.77;;
36585;SDS011;22591;48.314;11.562;2023-09-12T07:28:24;12.15;;;11.05;;
36585;SDS011;22591;48.314;11.562;2023-09-12T07:30:50;12.35;;;11.18;;
36585;SDS011;22591;48.314;11.562;2023-09-12T07:33:16;13.10;;;11.50;;
36585;SDS011;22591;48.314;11.562;2023-09-12T07:35:42;11.65;;;10.68;;
36585;SDS011;22591;48.314;11.562;2023-09-12T07:38:08;12.05;;;11.05;;
36585;SDS011;22591;48.314;11.562;2023-09-12T07:40:33;12.93;;;11.90;;
36585;SDS011;22591;48.314;11.562;2023-09-12T07:42:59;12.85;;;11.27;;
36585;SDS011;22591;48.314;11.562;2023-09-12T07:45:24;14.98;;;11.40;;
36585;SDS011;22591;48.314;11.562;2023-09-12T07:47:50;11.13;;;10.02;;
36585;SDS011;22591;48.314;11.562;2023-09-12T07:50:16;12.15;;;10.63;;
36585;SDS011;22591;48.314;11.562;2023-09-12T07:52:41;12.27;;;11.05;;
36585;SDS011;22591;48.314;11.562;2023-09-12T07:55:07;13.65;;;10.45;;
36585;SDS011;22591;48.314;11.562;2023-09-12T07:57:33;11.88;;;10.88;;
36585;SDS011;22591;48.314;11.562;2023-09-12T07:59:59;10.80;;;9.75;;
36585;SDS011;22591;48.314;11.562;2023-09-12T08:02:25;12.10;;;10.95;;
36585;SDS011;22591;48.314;11.562;2023-09-12T08:04:51;10.85;;;9.85;;
36585;SDS011;22591;48.314;11.562;2023-09-12T08:07:18;11.30;;;10.32;;
36585;SDS011;22591;48.314;11.562;2023-09-12T08:09:51;10.63;;;9.82;;
36585;SDS011;22591;48.314;11.562;2023-09-12T08:12:18;14.35;;;10.80;;
36585;SDS011;22591;48.314;11.562;2023-09-12T08:14:44;11.18;;;10.27;;
36585;SDS011;22591;48.314;11.562;2023-09-12T08:17:10;10.88;;;10.07;;
36585;SDS011;22591;48.314;11.562;2023-09-12T08:19:38;10.82;;;9.77;;
36585;SDS011;22591;48.314;11.562;2023-09-12T08:22:05;10.77;;;9.85;;
36585;SDS011;22591;48.314;11.562;2023-09-12T08:24:32;9.95;;;9.15;;
36585;SDS011;22591;48.314;11.562;2023-09-12T08:26:58;10.93;;;9.82;;
36585;SDS011;22591;48.314;11.562;2023-09-12T08:29:23;10.70;;;9.70;;
36585;SDS011;22591;48.314;11.562;2023-09-12T08:31:49;11.60;;;9.70;;
36585;SDS011;22591;48.314;11.562;2023-09-12T08:34:15;10.70;;;9.70;;
36585;SDS011;22591;48.314;11.562;2023-09-12T08:36:40;12.52;;;9.30;;
36585;SDS011;22591;48.314;11.562;2023-09-12T08:39:06;9.32;;;8.52;;
36585;SDS011;22591;48.314;11.562;2023-09-12T08:41:38;8.95;;;8.35;;
36585;SDS011;22591;48.314;11.562;2023-09-12T08:44:04;10.18;;;9.30;;
36585;SDS011;22591;48.314;11.562;2023-09-12T08:46:30;9.40;;;8.30;;
36585;SDS011;22591;48.314;11.562;2023-09-12T08:48:56;10.15;;;9.13;;
36585;SDS011;22591;48.314;11.562;2023-09-12T08:51:23;10.55;;;9.55;;
36585;SDS011;22591;48.314;11.562;2023-09-12T08:53:49;8.23;;;7.63;;
36585;SDS011;22591;48.314;11.562;2023-09-12T08:56:17;9.65;;;8.43;;
36585;SDS011;22591;48.314;11.562;2023-09-12T08:58:43;10.10;;;9.18;;
36585;SDS011;22591;48.314;11.562;2023-09-12T09:01:09;9.82;;;8.93;;
36585;SDS011;22591;48.314;11.562;2023-09-12T09:03:42;9.00;;;8.30;;
36585;SDS011;22591;48.314;11.562;2023-09-12T09:06:08;9.32;;;8.43;;
36585;SDS011;22591;48.314;11.562;2023-09-12T09:08:35;8.52;;;7.90;;
36585;SDS011;22591;48.314;11.562;2023-09-12T09:11:01;9.10;;;8.32;;
36585;SDS011;22591;48.314;11.562;2023-09-12T09:13:28;9.25;;;8.57;;
36585;SDS011;22591;48.314;11.562;2023-09-12T09:18:54;8.70;;;7.93;;
36585;SDS011;22591;48.314;11.562;2023-09-12T09:21:25;9.07;;;8.13;;
36585;SDS011;22591;48.314;11.562;2023-09-12T09:23:53;8.52;;;7.72;;
36585;SDS011;22591;48.314;11.562;2023-09-12T09:26:20;8.90;;;8.18;;
36585;SDS011;22591;48.314;11.562;2023-09-12T09:29:01;9.65;;;8.65;;
36585;SDS011;22591;48.314;11.562;2023-09-12T09:31:28;8.88;;;8.27;;
36585;SDS011;22591;48.314;11.562;2023-09-12T09:33:54;9.13;;;8.52;;
36585;SDS011;22591;48.314;11.562;2023-09-12T09:36:20;8.88;;;8.27;;
36585;SDS011;22591;48.314;11.562;2023-09-12T09:38:46;9.30;;;8.50;;
36585;SDS011;22591;48.314;11.562;2023-09-12T09:41:11;9.45;;;8.65;;
36585;SDS011;22591;48.314;11.562;2023-09-12T09:43:38;9.30;;;8.15;;
36585;SDS011;22591;48.314;11.562;2023-09-12T09:46:03;10.52;;;9.10;;
36585;SDS011;22591;48.314;11.562;2023-09-12T09:48:29;9.18;;;8.48;;
36585;SDS011;22591;48.314;11.562;2023-09-12T09:51:03;9.55;;;8.82;;
36585;SDS011;22591;48.314;11.562;2023-09-12T09:58:53;9.00;;;8.13;;
36585;SDS011;22591;48.314;11.562;2023-09-12T10:01:20;12.45;;;8.43;;
36585;SDS011;22591;48.314;11.562;2023-09-12T10:03:47;9.07;;;8.38;;
36585;SDS011;22591;48.314;11.562;2023-09-12T10:06:17;9.15;;;8.35;;
36585;SDS011;22591;48.314;11.562;2023-09-12T10:08:44;9.68;;;8.73;;
36585;SDS011;22591;48.314;11.562;2023-09-12T10:11:13;9.68;;;8.57;;
36585;SDS011;22591;48.314;11.562;2023-09-12T10:13:46;9.48;;;8.57;;
36585;SDS011;22591;48.314;11.562;2023-09-12T10:16:16;10.15;;;9.30;;
36585;SDS011;22591;48.314;11.562;2023-09-12T10:24:31;9.88;;;7.32;;
36585;SDS011;22591;48.314;11.562;2023-09-12T10:26:59;9.00;;;7.90;;
36585;SDS011;22591;48.314;11.562;2023-09-12T10:29:27;8.27;;;7.47;;
36585;SDS011;22591;48.314;11.562;2023-09-12T10:31:54;8.07;;;7.30;;
36585;SDS011;22591;48.314;11.562;2023-09-12T10:34:20;10.00;;;8.45;;
36585;SDS011;22591;48.314;11.562;2023-09-12T10:36:49;9.70;;;8.70;;
36585;SDS011;22591;48.314;11.562;2023-09-12T10:39:16;8.48;;;7.68;;
36585;SDS011;22591;48.314;11.562;2023-09-12T10:41:46;7.95;;;7.20;;
36585;SDS011;22591;48.314;11.562;2023-09-12T10:44:17;7.88;;;7.25;;
36585;SDS011;22591;48.314;11.562;2023-09-12T10:46:45;7.65;;;7.00;;
36585;SDS011;22591;48.314;11.562;2023-09-12T10:49:12;7.40;;;6.80;;
36585;SDS011;22591;48.314;11.562;2023-09-12T10:51:41;6.70;;;5.97;;
36585;SDS011;22591;48.314;11.562;2023-09-12T10:54:08;6.57;;;6.13;;
36585;SDS011;22591;48.314;11.562;2023-09-12T10:56:37;7.05;;;6.65;;
36585;SDS011;22591;48.314;11.562;2023-09-12T11:01:32;8.98;;;7.30;;
36585;SDS011;22591;48.314;11.562;2023-09-12T11:04:29;7.25;;;6.75;;
36585;SDS011;22591;48.314;11.562;2023-09-12T11:06:49;8.02;;;6.68;;
36585;SDS011;22591;48.314;11.562;2023-09-12T11:09:21;7.72;;;7.03;;
36585;SDS011;22591;48.314;11.562;2023-09-12T11:11:54;7.95;;;6.97;;
36585;SDS011;22591;48.314;11.562;2023-09-12T11:14:21;7.13;;;6.53;;
36585;SDS011;22591;48.314;11.562;2023-09-12T11:19:49;9.48;;;6.55;;
36585;SDS011;22591;48.314;11.562;2023-09-12T11:22:29;7.38;;;6.72;;
36585;SDS011;22591;48.314;11.562;2023-09-12T11:25:02;7.45;;;6.65;;
36585;SDS011;22591;48.314;11.562;2023-09-12T11:27:31;7.72;;;7.13;;
36585;SDS011;22591;48.314;11.562;2023-09-12T11:30:04;6.30;;;5.82;;
36585;SDS011;22591;48.314;11.562;2023-09-12T11:32:31;6.97;;;6.40;;
36585;SDS011;22591;48.314;11.562;2023-09-12T11:34:58;7.95;;;6.20;;
36585;SDS011;22591;48.314;11.562;2023-09-12T11:37:30;6.85;;;6.25;;
36585;SDS011;22591;48.314;11.562;2023-09-12T11:39:58;6.72;;;6.30;;
36585;SDS011;22591;48.314;11.562;2023-09-12T11:42:25;7.93;;;6.03;;
36585;SDS011;22591;48.314;11.562;2023-09-12T11:44:52;7.30;;;6.15;;
36585;SDS011;22591;48.314;11.562;2023-09-12T11:47:18;6.97;;;6.38;;
36585;SDS011;22591;48.314;11.562;2023-09-12T11:49:45;6.07;;;5.68;;
36585;SDS011;22591;48.314;11.562;2023-09-12T11:52:12;6.97;;;6.35;;
36585;SDS011;22591;48.314;11.562;2023-09-12T11:54:40;10.70;;;6.80;;
36585;SDS011;22591;48.314;11.562;2023-09-12T11:57:06;6.80;;;6.20;;
36585;SDS011;22591;48.314;11.562;2023-09-12T11:59:36;6.18;;;5.78;;
36585;SDS011;22591;48.314;11.562;2023-09-12T12:02:05;7.38;;;6.78;;
36585;SDS011;22591;48.314;11.562;2023-09-12T12:04:36;7.53;;;6.70;;
36585;SDS011;22591;48.314;11.562;2023-09-12T12:07:04;6.82;;;6.43;;
36585;SDS011;22591;48.314;11.562;2023-09-12T12:09:31;10.32;;;7.03;;
36585;SDS011;22591;48.314;11.562;2023-09-12T12:12:03;9.13;;;7.22;;
36585;SDS011;22591;48.314;11.562;2023-09-12T12:14:41;7.30;;;6.70;;
36585;SDS011;22591;48.314;11.562;2023-09-12T12:17:09;7.03;;;6.32;;
36585;SDS011;22591;48.314;11.562;2023-09-12T12:19:36;6.93;;;6.22;;
36585;SDS011;22591;48.314;11.562;2023-09-12T12:22:03;6.95;;;6.45;;
36585;SDS011;22591;48.314;11.562;2023-09-12T12:27:31;7.15;;;6.50;;
36585;SDS011;22591;48.314;11.562;2023-09-12T12:29:56;6.45;;;5.95;;
36585;SDS011;22591;48.314;11.562;2023-09-12T12:32:22;6.10;;;5.70;;
36585;SDS011;22591;48.314;11.562;2023-09-12T12:34:48;9.60;;;6.38;;
36585;SDS011;22591;48.314;11.562;2023-09-12T12:37:14;6.45;;;5.85;;
36585;SDS011;22591;48.314;11.562;2023-09-12T12:39:42;6.70;;;5.55;;
36585;SDS011;22591;48.314;11.562;2023-09-12T12:42:08;6.15;;;5.80;;
36585;SDS011;22591;48.314;11.562;2023-09-12T12:44:34;6.78;;;6.28;;
36585;SDS011;22591;48.314;11.562;2023-09-12T12:47:04;5.88;;;5.50;;
36585;SDS011;22591;48.314;11.562;2023-09-12T12:49:35;6.72;;;6.20;;
36585;SDS011;22591;48.314;11.562;2023-09-12T12:54:31;6.03;;;5.53;;
36585;SDS011;22591;48.314;11.562;2023-09-12T12:56:58;7.03;;;6.50;;
36585;SDS011;22591;48.314;11.562;2023-09-12T12:59:25;7.85;;;6.28;;
36585;SDS011;22591;48.314;11.562;2023-09-12T13:01:51;6.97;;;6.35;;
36585;SDS011;22591;48.314;11.562;2023-09-12T13:04:18;9.43;;;6.85;;
36585;SDS011;22591;48.314;11.562;2023-09-12T13:06:43;7.60;;;6.80;;
36585;SDS011;22591;48.314;11.562;2023-09-12T13:09:11;6.60;;;6.03;;
36585;SDS011;22591;48.314;11.562;2023-09-12T13:11:37;9.02;;;6.57;;
36585;SDS011;22591;48.314;11.562;2023-09-12T13:14:04;6.47;;;6.07;;
36585;SDS011;22591;48.314;11.562;2023-09-12T13:16:36;5.97;;;5.40;;
36585;SDS011;22591;48.314;11.562;2023-09-12T13:19:05;6.65;;;5.97;;
36585;SDS011;22591;48.314;11.562;2023-09-12T13:21:32;6.60;;;6.13;;
36585;SDS011;22591;48.314;11.562;2023-09-12T13:23:59;6.43;;;6.03;;
36585;SDS011;22591;48.314;11.562;2023-09-12T13:26:26;6.40;;;5.97;;
36585;SDS011;22591;48.314;11.562;2023-09-12T13:28:51;6.88;;;6.28;;
36585;SDS011;22591;48.314;11.562;2023-09-12T13:31:17;6.22;;;5.65;;
36585;SDS011;22591;48.314;11.562;2023-09-12T13:33:44;6.75;;;6.15;;
36585;SDS011;22591;48.314;11.562;2023-09-12T13:36:09;7.90;;;6.18;;
36585;SDS011;22591;48.314;11.562;2023-09-12T13:38:35;5.97;;;5.57;;
36585;SDS011;22591;48.314;11.562;2023-09-12T13:41:01;6.10;;;5.70;;
36585;SDS011;22591;48.314;11.562;2023-09-12T13:43:28;6.78;;;6.07;;
36585;SDS011;22591;48.314;11.562;2023-09-12T13:45:54;6.85;;;6.10;;
36585;SDS011;22591;48.314;11.562;2023-09-12T13:48:20;7.43;;;6.75;;
36585;SDS011;22591;48.314;11.562;2023-09-12T13:50:45;6.28;;;5.80;;
36585;SDS011;22591;48.314;11.562;2023-09-12T13:53:11;6.28;;;5.88;;
36585;SDS011;22591;48.314;11.562;2023-09-12T13:55:37;6.97;;;6.55;;
36585;SDS011;22591;48.314;11.562;2023-09-12T13:58:04;6.45;;;5.88;;
36585;SDS011;22591;48.314;11.562;2023-09-12T14:00:32;6.50;;;5.90;;
36585;SDS011;22591;48.314;11.562;2023-09-12T14:03:00;6.20;;;5.80;;
36585;SDS011;22591;48.314;11.562;2023-09-12T14:05:26;5.72;;;5.35;;
36585;SDS011;22591;48.314;11.562;2023-09-12T14:07:53;7.15;;;6.45;;
36585;SDS011;22591;48.314;11.562;2023-09-12T14:10:18;6.18;;;5.68;;
36585;SDS011;22591;48.314;11.562;2023-09-12T14:12:44;6.30;;;5.90;;
36585;SDS011;22591;48.314;11.562;2023-09-12T14:15:10;6.75;;;6.03;;
36585;SDS011;22591;48.314;11.562;2023-09-12T14:17:38;7.10;;;6.50;;
36585;SDS011;22591;48.314;11.562;2023-09-12T14:20:03;8.02;;;6.28;;
36585;SDS011;22591;48.314;11.562;2023-09-12T14:22:29;6.47;;;5.97;;
36585;SDS011;22591;48.314;11.562;2023-09-12T14:24:56;6.70;;;6.05;;
36585;SDS011;22591;48.314;11.562;2023-09-12T14:27:22;7.03;;;6.28;;
36585;SDS011;22591;48.314;11.562;2023-09-12T14:29:49;6.55;;;6.05;;
36585;SDS011;22591;48.314;11.562;2023-09-12T14:32:15;7.82;;;6.95;;
36585;SDS011;22591;48.314;11.562;2023-09-12T14:34:41;8.38;;;7.53;;
36585;SDS011;22591;48.314;11.562;2023-09-12T14:37:07;8.38;;;7.57;;
36585;SDS011;22591;48.314;11.562;2023-09-12T14:39:33;9.95;;;6.90;;
36585;SDS011;22591;48.314;11.562;2023-09-12T14:42:02;11.57;;;7.68;;
36585;SDS011;22591;48.314;11.562;2023-09-12T14:44:33;7.53;;;6.85;;